Gesamt
Dave Forest Airport (Cloudbreak, Western Australia) KFE Wetter
|
Cloudbreak, Western Australia (KFE / YFDF)
Klarer Himmel
Leichter Wind |
|
22 °C |
KFE Terminal Area Forecast
| Date | Time (AWST) | Flight Rules | Wind Dir. | Speed | Type | Height AGL (ft) | Visibility | Remarks | ||||||
|---|---|---|---|---|---|---|---|---|---|---|---|---|---|---|
| 02-Mai | 21:00 | VFR | 120° | 8 kt | Clouds and Visibility are OK | >= 6 miles | ||||||||
Kürzlicher METAR-Verlauf für KFE
| Date | Time (AWST) | Flight Rules | Wind Dir. | Speed | Type | Height AGL (ft) | Visibility | Temp (°C) | Temp (°F) | Dew Point (°C) | Dew Point (°F) | Rel. Humid. | Pressure | Density Altitude | Remarks |
|---|---|---|---|---|---|---|---|---|---|---|---|---|---|---|---|
| 02-Mai | 21:00 | VFR | 120° | 8 kt | 10000 meters | 22° | 71° | 3° | 37° | 29% | 1018 mb | 2.501 ft | |||
| 02-Mai | 20:00 | VFR | 120° | 10 kt | 10000 meters | 23° | 73° | 4° | 39° | 29% | 1017 mb | 2.651 ft | |||
| 02-Mai | 19:00 | VFR | 140° | 9 kt | Broken |
8.600 |
10000 meters | 23° | 73° | 5° | 41° | 31% | 1016 mb | 2.680 ft | |
| 02-Mai | 18:00 | VFR | 130° | 8 kt | 10000 meters | 24° | 75° | 5° | 41° | 29% | 1016 mb | 2.800 ft | |||
| 02-Mai | 17:00 | VFR | 120° | 10 kt | 10000 meters | 25° | 77° | 5° | 41° | 28% | 1015 mb | 2.950 ft | |||
| 02-Mai | 16:00 | VFR | 130° | 10 kt | 10000 meters | 26° | 78° | 5° | 41° | 26% | 1015 mb | 3.070 ft | |||
| 02-Mai | 15:00 | VFR | 110° | 11 kt | 10000 meters | 26° | 78° | 6° | 42° | 28% | 1015 mb | 3.070 ft | |||
| 02-Mai | 14:00 | VFR | 130° | 12 kt | 10000 meters | 26° | 78° | 5° | 41° | 26% | 1015 mb | 3.070 ft | |||
| 02-Mai | 13:00 | VFR | 130° | 12 kt | 10000 meters | 25° | 77° | 5° | 41° | 28% | 1016 mb | 2.920 ft | |||
| 02-Mai | 12:00 | VFR | 140° | 13 kt | 10000 meters | 24° | 75° | 5° | 41° | 29% | 1017 mb | 2.771 ft | |||
| 02-Mai | 11:00 | VFR | 130° | 14 kt | 10000 meters | 23° | 73° | 5° | 41° | 31% | 1018 mb | 2.621 ft | |||
| 02-Mai | 10:00 | VFR | 130° | 16 kt | 10000 meters | 22° | 71° | 5° | 41° | 33% | 1018 mb | 2.501 ft | |||
| 02-Mai | 09:00 | VFR | 130° | 15 kt | 10000 meters | 20° | 68° | 5° | 41° | 37% | 1018 mb | 2.261 ft | |||
| 02-Mai | 08:00 | VFR | 130° | 15 kt | 10000 meters | 19° | 66° | 6° | 42° | 43% | 1018 mb | 2.141 ft | |||
| 02-Mai | 07:00 | VFR | 140° | 15 kt | 10000 meters | 19° | 66° | 6° | 42° | 43% | 1017 mb | 2.171 ft | |||
| 02-Mai | 06:00 | VFR | 140° | 15 kt | 10000 meters | 20° | 68° | 7° | 44° | 43% | 1016 mb | 2.320 ft | |||
| 02-Mai | 05:00 | VFR | 140° | 14 kt | 10000 meters | 21° | 69° | 7° | 44° | 40% | 1016 mb | 2.440 ft | |||
| 02-Mai | 04:00 | VFR | 130° | 13 kt | 10000 meters | 22° | 71° | 7° | 44° | 38% | 1015 mb | 2.590 ft | |||
| 02-Mai | 03:00 | VFR | 140° | 8 kt | 10000 meters | 22° | 71° | 8° | 46° | 41% | 1015 mb | 2.590 ft | |||
| 02-Mai | 02:00 | VFR | 150° | 8 kt | 10000 meters | 23° | 73° | 8° | 46° | 38% | 1015 mb | 2.710 ft | |||
| 02-Mai | 01:00 | VFR | 150° | 9 kt | 10000 meters | 24° | 75° | 9° | 48° | 38% | 1015 mb | 2.830 ft | |||
| 02-Mai | 00:00 | VFR | 150° | 10 kt | 10000 meters | 25° | 77° | 9° | 48° | 36% | 1015 mb | 2.950 ft | |||
| 01-Mai | 23:00 | VFR | 150° | 5 kt | 10000 meters | 25° | 77° | 14° | 57° | 50% | 1015 mb | 2.950 ft | |||
| 01-Mai | 22:00 | VFR | 130° | 6 kt | 10000 meters | 26° | 78° | 14° | 57° | 48% | 1015 mb | 3.070 ft |
Anmelden
| Ihr Browser wird nicht unterstützt. aktualisieren Sie Ihren Browser |
